Aérodrome :
LOGIN :

S'inscrire | Disclaimer

   EN    FR    IT 

 










Légende :    VFR   VFR Marginal   IFR   IFR Intensif   IFR Très Intensif
Visi : 
Plafond : 
>= 8 km
>= 3000ft
5 à 8 km
1000 à 3000 ft
1500m à 5 km
500 à 1000 ft
800 à 1500m
200 à 500 ft
< 800m
< 200 ft
Symboles :   Orages  Brouillard  Fortes neiges  Fortes précipitations  Vent > 20 kt
SIGMETs :   Divers  Orages  Givrage  Turbulence  Onde Orograph.  Cendres Volcan.






- Altitude de l'aérodrome : 597 ft
- Code IATA : PDV


LBPD - Plovdiv

DERNIER METAR :
  • 191530Z AUTO 06003KT 030V090 9999 OVC015 13/10 Q1024 NOSIG

METARs EXPIRÉS :
  • 191500Z AUTO 07003KT 040V100 9999 OVC014 13/10 Q1024 NOSIG
  • 191430Z AUTO 08003KT 9999 OVC015 13/10 Q1024 NOSIG
  • 191400Z AUTO 07004KT 9999 OVC016 13/11 Q1024 NOSIG
  • 191330Z AUTO 06003KT 020V080 9999 OVC016 14/10 Q1024 NOSIG
  • 191300Z AUTO 03003KT 340V100 9999 OVC019 14/10 Q1024 NOSIG

TAF TAF LBPD
Valide du 19 à 12h jusqu'au 20 à 12h UTC


191100Z 1912/2012 VRB04KT 7000 SCT015 BKN020
BECMG 1917/1919 3000 BR SCT005 BKN010
TEMPO 1921/2006 0600 FG BKN002
BECMG 2008/2010 9999 SCT030 BKN050



MET'MAP, la Météo Aéronautique d'un coup d'oeil ! - Copyright ORBIFLY Décembre 2007 - Disclaimer

ORBIFLY MET'MAP TEAM :

Programmation & Développement : Alexandra Zaïnal
Conception & Développement : Baudouin d'Aumeries
Co-Programmation & Développement : Marc-Olivier Méhu
Soutien technique & logistique : Manuel Goepfert

Contact : metmap@orbifly.com




SOURCES & CREDITS :

   NOAA